sensor_id;sensor_type;location;lat;lon;timestamp;P1;durP1;ratioP1;P2;durP2;ratioP2
62790;SDS011;48830;53.426;10.300;2022-11-23T00:02:22;41.80;;;21.43;;
62790;SDS011;48830;53.426;10.300;2022-11-23T00:04:48;42.30;;;20.97;;
62790;SDS011;48830;53.426;10.300;2022-11-23T00:07:13;38.77;;;20.30;;
62790;SDS011;48830;53.426;10.300;2022-11-23T00:09:39;38.53;;;20.67;;
62790;SDS011;48830;53.426;10.300;2022-11-23T00:12:04;37.70;;;20.43;;
62790;SDS011;48830;53.426;10.300;2022-11-23T00:14:30;40.17;;;21.17;;
62790;SDS011;48830;53.426;10.300;2022-11-23T00:16:55;37.97;;;20.43;;
62790;SDS011;48830;53.426;10.300;2022-11-23T00:19:21;38.43;;;20.37;;
62790;SDS011;48830;53.426;10.300;2022-11-23T00:21:46;37.83;;;19.03;;
62790;SDS011;48830;53.426;10.300;2022-11-23T00:24:12;37.57;;;19.30;;
62790;SDS011;48830;53.426;10.300;2022-11-23T00:26:37;37.47;;;19.40;;
62790;SDS011;48830;53.426;10.300;2022-11-23T00:29:03;34.97;;;19.63;;
62790;SDS011;48830;53.426;10.300;2022-11-23T00:31:28;40.17;;;20.93;;
62790;SDS011;48830;53.426;10.300;2022-11-23T00:33:54;39.80;;;19.80;;
62790;SDS011;48830;53.426;10.300;2022-11-23T00:36:21;35.27;;;18.20;;
62790;SDS011;48830;53.426;10.300;2022-11-23T00:38:48;37.73;;;20.10;;
62790;SDS011;48830;53.426;10.300;2022-11-23T00:41:15;35.30;;;18.80;;
62790;SDS011;48830;53.426;10.300;2022-11-23T00:43:45;33.47;;;19.03;;
62790;SDS011;48830;53.426;10.300;2022-11-23T00:48:40;39.60;;;19.87;;
62790;SDS011;48830;53.426;10.300;2022-11-23T00:51:07;41.00;;;19.37;;
62790;SDS011;48830;53.426;10.300;2022-11-23T00:53:34;34.77;;;19.07;;
62790;SDS011;48830;53.426;10.300;2022-11-23T00:56:00;35.73;;;18.90;;
62790;SDS011;48830;53.426;10.300;2022-11-23T00:58:26;38.30;;;18.93;;
62790;SDS011;48830;53.426;10.300;2022-11-23T01:01:02;34.20;;;18.47;;
62790;SDS011;48830;53.426;10.300;2022-11-23T01:03:33;36.13;;;19.30;;
62790;SDS011;48830;53.426;10.300;2022-11-23T01:06:03;35.70;;;19.47;;
62790;SDS011;48830;53.426;10.300;2022-11-23T01:08:30;35.43;;;18.80;;
62790;SDS011;48830;53.426;10.300;2022-11-23T01:10:58;35.47;;;19.67;;
62790;SDS011;48830;53.426;10.300;2022-11-23T01:13:24;37.17;;;19.17;;
62790;SDS011;48830;53.426;10.300;2022-11-23T01:15:50;35.70;;;18.67;;
62790;SDS011;48830;53.426;10.300;2022-11-23T01:18:17;31.50;;;18.40;;
62790;SDS011;48830;53.426;10.300;2022-11-23T01:20:42;39.20;;;19.40;;
62790;SDS011;48830;53.426;10.300;2022-11-23T01:23:07;34.50;;;19.17;;
62790;SDS011;48830;53.426;10.300;2022-11-23T01:25:34;34.53;;;17.90;;
62790;SDS011;48830;53.426;10.300;2022-11-23T01:28:00;32.17;;;18.30;;
62790;SDS011;48830;53.426;10.300;2022-11-23T01:30:26;34.57;;;18.70;;
62790;SDS011;48830;53.426;10.300;2022-11-23T01:32:51;31.87;;;17.70;;
62790;SDS011;48830;53.426;10.300;2022-11-23T01:35:17;33.93;;;18.33;;
62790;SDS011;48830;53.426;10.300;2022-11-23T01:37:43;35.00;;;19.00;;
62790;SDS011;48830;53.426;10.300;2022-11-23T01:40:09;33.03;;;17.17;;
62790;SDS011;48830;53.426;10.300;2022-11-23T01:42:42;33.63;;;17.87;;
62790;SDS011;48830;53.426;10.300;2022-11-23T01:48:00;33.60;;;18.33;;
62790;SDS011;48830;53.426;10.300;2022-11-23T01:50:29;31.70;;;17.77;;
62790;SDS011;48830;53.426;10.300;2022-11-23T01:52:55;32.07;;;17.33;;
62790;SDS011;48830;53.426;10.300;2022-11-23T01:55:22;33.17;;;18.27;;
62790;SDS011;48830;53.426;10.300;2022-11-23T01:57:49;30.70;;;17.33;;
62790;SDS011;48830;53.426;10.300;2022-11-23T02:00:14;33.77;;;17.40;;
62790;SDS011;48830;53.426;10.300;2022-11-23T02:02:43;30.03;;;17.20;;
62790;SDS011;48830;53.426;10.300;2022-11-23T02:05:15;30.93;;;17.37;;
62790;SDS011;48830;53.426;10.300;2022-11-23T02:07:45;30.03;;;17.10;;
62790;SDS011;48830;53.426;10.300;2022-11-23T02:10:13;32.33;;;17.07;;
62790;SDS011;48830;53.426;10.300;2022-11-23T02:12:39;31.47;;;17.10;;
62790;SDS011;48830;53.426;10.300;2022-11-23T02:15:05;31.10;;;17.00;;
62790;SDS011;48830;53.426;10.300;2022-11-23T02:17:32;32.07;;;17.97;;
62790;SDS011;48830;53.426;10.300;2022-11-23T02:20:09;31.20;;;16.33;;
62790;SDS011;48830;53.426;10.300;2022-11-23T02:22:42;29.13;;;16.60;;
62790;SDS011;48830;53.426;10.300;2022-11-23T02:28:00;29.73;;;17.03;;
62790;SDS011;48830;53.426;10.300;2022-11-23T02:30:26;30.70;;;17.23;;
62790;SDS011;48830;53.426;10.300;2022-11-23T02:32:54;30.37;;;16.57;;
62790;SDS011;48830;53.426;10.300;2022-11-23T02:35:20;28.67;;;16.63;;
62790;SDS011;48830;53.426;10.300;2022-11-23T02:37:45;29.00;;;16.00;;
62790;SDS011;48830;53.426;10.300;2022-11-23T02:40:24;28.80;;;15.97;;
62790;SDS011;48830;53.426;10.300;2022-11-23T02:42:55;25.77;;;15.60;;
62790;SDS011;48830;53.426;10.300;2022-11-23T02:47:49;32.87;;;17.23;;
62790;SDS011;48830;53.426;10.300;2022-11-23T02:50:15;32.00;;;16.80;;
62790;SDS011;48830;53.426;10.300;2022-11-23T02:52:41;27.63;;;15.00;;
62790;SDS011;48830;53.426;10.300;2022-11-23T02:55:07;31.63;;;16.80;;
62790;SDS011;48830;53.426;10.300;2022-11-23T02:57:34;28.37;;;16.50;;
62790;SDS011;48830;53.426;10.300;2022-11-23T03:00:00;29.53;;;17.47;;
62790;SDS011;48830;53.426;10.300;2022-11-23T03:02:25;28.13;;;16.17;;
62790;SDS011;48830;53.426;10.300;2022-11-23T03:04:52;28.07;;;15.30;;
62790;SDS011;48830;53.426;10.300;2022-11-23T03:07:18;29.73;;;15.83;;
62790;SDS011;48830;53.426;10.300;2022-11-23T03:09:45;28.77;;;16.80;;
62790;SDS011;48830;53.426;10.300;2022-11-23T03:12:12;30.23;;;16.10;;
62790;SDS011;48830;53.426;10.300;2022-11-23T03:14:37;28.60;;;16.47;;
62790;SDS011;48830;53.426;10.300;2022-11-23T03:17:03;28.40;;;15.83;;
62790;SDS011;48830;53.426;10.300;2022-11-23T03:19:34;29.37;;;16.43;;
62790;SDS011;48830;53.426;10.300;2022-11-23T03:22:00;29.80;;;16.37;;
62790;SDS011;48830;53.426;10.300;2022-11-23T03:24:29;30.37;;;16.23;;
62790;SDS011;48830;53.426;10.300;2022-11-23T03:26:55;29.77;;;16.50;;
62790;SDS011;48830;53.426;10.300;2022-11-23T03:29:21;32.33;;;17.40;;
62790;SDS011;48830;53.426;10.300;2022-11-23T03:31:51;30.87;;;16.93;;
62790;SDS011;48830;53.426;10.300;2022-11-23T03:34:19;32.87;;;17.83;;
62790;SDS011;48830;53.426;10.300;2022-11-23T03:36:46;28.70;;;16.90;;
62790;SDS011;48830;53.426;10.300;2022-11-23T03:39:12;31.13;;;16.27;;
62790;SDS011;48830;53.426;10.300;2022-11-23T03:42:00;32.73;;;16.53;;
62790;SDS011;48830;53.426;10.300;2022-11-23T03:44:30;31.87;;;16.23;;
62790;SDS011;48830;53.426;10.300;2022-11-23T03:46:56;28.87;;;15.97;;
62790;SDS011;48830;53.426;10.300;2022-11-23T03:49:23;28.87;;;15.70;;
62790;SDS011;48830;53.426;10.300;2022-11-23T03:51:48;31.40;;;15.80;;
62790;SDS011;48830;53.426;10.300;2022-11-23T03:54:14;29.83;;;15.70;;
62790;SDS011;48830;53.426;10.300;2022-11-23T03:56:39;30.33;;;16.03;;
62790;SDS011;48830;53.426;10.300;2022-11-23T03:59:04;29.67;;;15.27;;
62790;SDS011;48830;53.426;10.300;2022-11-23T04:01:30;30.43;;;15.87;;
62790;SDS011;48830;53.426;10.300;2022-11-23T04:04:01;26.13;;;16.00;;
62790;SDS011;48830;53.426;10.300;2022-11-23T04:06:49;29.33;;;16.30;;
62790;SDS011;48830;53.426;10.300;2022-11-23T04:09:22;30.10;;;15.83;;
62790;SDS011;48830;53.426;10.300;2022-11-23T04:12:02;31.00;;;15.57;;
62790;SDS011;48830;53.426;10.300;2022-11-23T04:14:28;30.10;;;15.67;;
62790;SDS011;48830;53.426;10.300;2022-11-23T04:16:54;26.73;;;15.43;;
62790;SDS011;48830;53.426;10.300;2022-11-23T04:19:20;24.37;;;14.20;;
62790;SDS011;48830;53.426;10.300;2022-11-23T04:21:46;27.03;;;15.57;;
62790;SDS011;48830;53.426;10.300;2022-11-23T04:24:12;26.07;;;14.60;;
62790;SDS011;48830;53.426;10.300;2022-11-23T04:26:39;28.67;;;16.77;;
62790;SDS011;48830;53.426;10.300;2022-11-23T04:29:06;25.87;;;14.87;;
62790;SDS011;48830;53.426;10.300;2022-11-23T04:31:33;24.43;;;14.30;;
62790;SDS011;48830;53.426;10.300;2022-11-23T04:34:08;26.47;;;15.27;;
62790;SDS011;48830;53.426;10.300;2022-11-23T04:36:34;31.90;;;16.20;;
62790;SDS011;48830;53.426;10.300;2022-11-23T04:39:00;26.47;;;15.17;;
62790;SDS011;48830;53.426;10.300;2022-11-23T04:41:34;27.07;;;14.90;;
62790;SDS011;48830;53.426;10.300;2022-11-23T04:44:00;25.57;;;14.40;;
62790;SDS011;48830;53.426;10.300;2022-11-23T04:46:26;29.20;;;15.77;;
62790;SDS011;48830;53.426;10.300;2022-11-23T04:48:52;29.13;;;15.00;;
62790;SDS011;48830;53.426;10.300;2022-11-23T04:51:18;27.70;;;15.37;;
62790;SDS011;48830;53.426;10.300;2022-11-23T04:53:44;25.57;;;13.87;;
62790;SDS011;48830;53.426;10.300;2022-11-23T04:56:11;26.00;;;14.43;;
62790;SDS011;48830;53.426;10.300;2022-11-23T04:58:38;29.90;;;15.17;;
62790;SDS011;48830;53.426;10.300;2022-11-23T05:01:04;27.33;;;15.23;;
62790;SDS011;48830;53.426;10.300;2022-11-23T05:03:32;25.27;;;14.27;;
62790;SDS011;48830;53.426;10.300;2022-11-23T05:06:03;25.63;;;14.87;;
62790;SDS011;48830;53.426;10.300;2022-11-23T05:08:37;23.17;;;13.60;;
62790;SDS011;48830;53.426;10.300;2022-11-23T05:11:26;27.50;;;14.70;;
62790;SDS011;48830;53.426;10.300;2022-11-23T05:13:53;25.30;;;14.53;;
62790;SDS011;48830;53.426;10.300;2022-11-23T05:16:19;28.83;;;15.47;;
62790;SDS011;48830;53.426;10.300;2022-11-23T05:18:44;25.10;;;15.03;;
62790;SDS011;48830;53.426;10.300;2022-11-23T05:21:10;24.87;;;13.87;;
62790;SDS011;48830;53.426;10.300;2022-11-23T05:23:35;24.17;;;13.43;;
62790;SDS011;48830;53.426;10.300;2022-11-23T05:26:01;24.47;;;13.73;;
62790;SDS011;48830;53.426;10.300;2022-11-23T05:28:26;27.70;;;14.13;;
62790;SDS011;48830;53.426;10.300;2022-11-23T05:30:52;23.50;;;14.00;;
62790;SDS011;48830;53.426;10.300;2022-11-23T05:33:18;23.03;;;13.63;;
62790;SDS011;48830;53.426;10.300;2022-11-23T05:35:44;25.77;;;14.10;;
62790;SDS011;48830;53.426;10.300;2022-11-23T05:38:09;26.40;;;14.33;;
62790;SDS011;48830;53.426;10.300;2022-11-23T05:40:35;25.90;;;13.67;;
62790;SDS011;48830;53.426;10.300;2022-11-23T05:43:02;27.23;;;14.87;;
62790;SDS011;48830;53.426;10.300;2022-11-23T05:45:28;20.77;;;12.57;;
62790;SDS011;48830;53.426;10.300;2022-11-23T05:47:56;22.70;;;12.77;;
62790;SDS011;48830;53.426;10.300;2022-11-23T05:51:01;25.13;;;12.83;;
62790;SDS011;48830;53.426;10.300;2022-11-23T05:53:32;22.47;;;13.70;;
62790;SDS011;48830;53.426;10.300;2022-11-23T05:56:10;23.17;;;14.20;;
62790;SDS011;48830;53.426;10.300;2022-11-23T05:58:46;28.60;;;13.93;;
62790;SDS011;48830;53.426;10.300;2022-11-23T06:01:11;25.30;;;13.90;;
62790;SDS011;48830;53.426;10.300;2022-11-23T06:03:38;26.90;;;13.80;;
62790;SDS011;48830;53.426;10.300;2022-11-23T06:06:04;23.63;;;14.47;;
62790;SDS011;48830;53.426;10.300;2022-11-23T06:08:36;25.37;;;14.43;;
62790;SDS011;48830;53.426;10.300;2022-11-23T06:11:02;23.77;;;13.30;;
62790;SDS011;48830;53.426;10.300;2022-11-23T06:13:29;23.60;;;13.57;;
62790;SDS011;48830;53.426;10.300;2022-11-23T06:15:54;22.97;;;13.57;;
62790;SDS011;48830;53.426;10.300;2022-11-23T06:18:27;21.07;;;12.30;;
62790;SDS011;48830;53.426;10.300;2022-11-23T06:20:52;22.27;;;12.83;;
62790;SDS011;48830;53.426;10.300;2022-11-23T06:23:18;24.03;;;13.07;;
62790;SDS011;48830;53.426;10.300;2022-11-23T06:25:44;21.40;;;12.53;;
62790;SDS011;48830;53.426;10.300;2022-11-23T06:28:23;23.13;;;12.47;;
62790;SDS011;48830;53.426;10.300;2022-11-23T06:30:51;21.90;;;13.03;;
62790;SDS011;48830;53.426;10.300;2022-11-23T06:33:17;23.37;;;12.57;;
62790;SDS011;48830;53.426;10.300;2022-11-23T06:35:55;23.77;;;13.47;;
62790;SDS011;48830;53.426;10.300;2022-11-23T06:38:25;25.67;;;14.07;;
62790;SDS011;48830;53.426;10.300;2022-11-23T06:41:02;22.40;;;13.07;;
62790;SDS011;48830;53.426;10.300;2022-11-23T06:43:29;26.40;;;14.43;;
62790;SDS011;48830;53.426;10.300;2022-11-23T06:45:55;20.73;;;12.17;;
62790;SDS011;48830;53.426;10.300;2022-11-23T06:48:24;24.37;;;14.20;;
62790;SDS011;48830;53.426;10.300;2022-11-23T06:50:50;25.73;;;13.80;;
62790;SDS011;48830;53.426;10.300;2022-11-23T06:53:18;23.37;;;14.17;;
62790;SDS011;48830;53.426;10.300;2022-11-23T06:55:50;28.17;;;13.87;;
62790;SDS011;48830;53.426;10.300;2022-11-23T06:58:18;26.40;;;13.90;;
62790;SDS011;48830;53.426;10.300;2022-11-23T07:00:43;27.03;;;14.43;;
62790;SDS011;48830;53.426;10.300;2022-11-23T07:03:15;25.20;;;13.60;;
62790;SDS011;48830;53.426;10.300;2022-11-23T07:05:44;22.63;;;12.60;;
62790;SDS011;48830;53.426;10.300;2022-11-23T07:08:09;24.33;;;12.70;;
62790;SDS011;48830;53.426;10.300;2022-11-23T07:10:35;28.57;;;14.90;;
62790;SDS011;48830;53.426;10.300;2022-11-23T07:13:05;21.20;;;12.83;;
62790;SDS011;48830;53.426;10.300;2022-11-23T07:15:34;22.77;;;12.90;;
62790;SDS011;48830;53.426;10.300;2022-11-23T07:18:00;20.57;;;12.43;;
62790;SDS011;48830;53.426;10.300;2022-11-23T07:20:26;20.40;;;12.60;;
62790;SDS011;48830;53.426;10.300;2022-11-23T07:23:02;24.27;;;12.80;;
62790;SDS011;48830;53.426;10.300;2022-11-23T07:25:29;24.70;;;11.97;;
62790;SDS011;48830;53.426;10.300;2022-11-23T07:27:57;23.07;;;11.90;;
62790;SDS011;48830;53.426;10.300;2022-11-23T07:30:25;19.63;;;12.00;;
62790;SDS011;48830;53.426;10.300;2022-11-23T07:32:52;25.30;;;12.37;;
62790;SDS011;48830;53.426;10.300;2022-11-23T07:35:18;21.23;;;12.17;;
62790;SDS011;48830;53.426;10.300;2022-11-23T07:37:44;19.43;;;12.23;;
62790;SDS011;48830;53.426;10.300;2022-11-23T07:40:10;20.00;;;11.43;;
62790;SDS011;48830;53.426;10.300;2022-11-23T07:42:36;19.43;;;12.27;;
62790;SDS011;48830;53.426;10.300;2022-11-23T07:45:02;21.27;;;12.03;;
62790;SDS011;48830;53.426;10.300;2022-11-23T07:47:28;20.47;;;10.93;;
62790;SDS011;48830;53.426;10.300;2022-11-23T07:49:54;19.87;;;11.30;;
62790;SDS011;48830;53.426;10.300;2022-11-23T07:52:19;21.60;;;11.80;;
62790;SDS011;48830;53.426;10.300;2022-11-23T07:54:45;22.97;;;12.00;;
62790;SDS011;48830;53.426;10.300;2022-11-23T07:57:10;21.20;;;11.30;;
62790;SDS011;48830;53.426;10.300;2022-11-23T07:59:36;21.97;;;11.17;;
62790;SDS011;48830;53.426;10.300;2022-11-23T08:02:01;20.83;;;10.97;;
62790;SDS011;48830;53.426;10.300;2022-11-23T08:04:27;19.03;;;11.93;;
62790;SDS011;48830;53.426;10.300;2022-11-23T08:06:53;19.13;;;11.67;;
62790;SDS011;48830;53.426;10.300;2022-11-23T08:09:19;19.30;;;12.07;;
62790;SDS011;48830;53.426;10.300;2022-11-23T08:11:44;21.87;;;11.37;;
62790;SDS011;48830;53.426;10.300;2022-11-23T08:14:10;24.40;;;11.70;;
62790;SDS011;48830;53.426;10.300;2022-11-23T08:16:35;17.03;;;11.00;;
62790;SDS011;48830;53.426;10.300;2022-11-23T08:19:01;23.30;;;11.23;;
62790;SDS011;48830;53.426;10.300;2022-11-23T08:21:26;17.17;;;11.10;;
62790;SDS011;48830;53.426;10.300;2022-11-23T08:23:52;21.23;;;12.43;;
62790;SDS011;48830;53.426;10.300;2022-11-23T08:26:17;18.53;;;10.07;;
62790;SDS011;48830;53.426;10.300;2022-11-23T08:28:43;17.30;;;10.93;;
62790;SDS011;48830;53.426;10.300;2022-11-23T08:31:09;20.77;;;10.13;;
62790;SDS011;48830;53.426;10.300;2022-11-23T08:33:36;18.37;;;10.17;;
62790;SDS011;48830;53.426;10.300;2022-11-23T08:36:03;20.93;;;9.50;;
62790;SDS011;48830;53.426;10.300;2022-11-23T08:38:30;19.63;;;10.67;;
62790;SDS011;48830;53.426;10.300;2022-11-23T08:40:58;16.97;;;10.17;;
62790;SDS011;48830;53.426;10.300;2022-11-23T08:43:25;19.67;;;10.37;;
62790;SDS011;48830;53.426;10.300;2022-11-23T08:45:55;17.40;;;9.77;;
62790;SDS011;48830;53.426;10.300;2022-11-23T08:48:21;22.47;;;10.07;;
62790;SDS011;48830;53.426;10.300;2022-11-23T08:50:46;15.90;;;9.57;;
62790;SDS011;48830;53.426;10.300;2022-11-23T08:53:12;17.07;;;10.23;;
62790;SDS011;48830;53.426;10.300;2022-11-23T08:55:37;17.00;;;10.10;;
62790;SDS011;48830;53.426;10.300;2022-11-23T08:58:03;16.67;;;9.70;;
62790;SDS011;48830;53.426;10.300;2022-11-23T09:00:28;14.30;;;9.37;;
62790;SDS011;48830;53.426;10.300;2022-11-23T09:02:54;16.33;;;9.23;;
62790;SDS011;48830;53.426;10.300;2022-11-23T09:05:23;12.73;;;8.97;;
62790;SDS011;48830;53.426;10.300;2022-11-23T09:07:48;16.57;;;9.03;;
62790;SDS011;48830;53.426;10.300;2022-11-23T09:10:14;15.93;;;9.20;;
62790;SDS011;48830;53.426;10.300;2022-11-23T09:12:40;15.57;;;8.67;;
62790;SDS011;48830;53.426;10.300;2022-11-23T09:15:06;15.03;;;8.57;;
62790;SDS011;48830;53.426;10.300;2022-11-23T09:17:32;16.50;;;8.67;;
62790;SDS011;48830;53.426;10.300;2022-11-23T09:19:58;15.77;;;8.30;;
62790;SDS011;48830;53.426;10.300;2022-11-23T09:22:23;14.17;;;8.30;;
62790;SDS011;48830;53.426;10.300;2022-11-23T09:24:49;15.37;;;8.60;;
62790;SDS011;48830;53.426;10.300;2022-11-23T09:27:14;13.80;;;7.73;;
62790;SDS011;48830;53.426;10.300;2022-11-23T09:29:40;12.57;;;7.07;;
62790;SDS011;48830;53.426;10.300;2022-11-23T09:32:05;13.17;;;7.43;;
62790;SDS011;48830;53.426;10.300;2022-11-23T09:34:31;13.47;;;7.90;;
62790;SDS011;48830;53.426;10.300;2022-11-23T09:36:56;15.73;;;7.77;;
62790;SDS011;48830;53.426;10.300;2022-11-23T09:39:22;15.97;;;7.17;;
62790;SDS011;48830;53.426;10.300;2022-11-23T09:44:53;10.80;;;6.00;;
62790;SDS011;48830;53.426;10.300;2022-11-23T09:47:41;13.60;;;6.27;;
62790;SDS011;48830;53.426;10.300;2022-11-23T09:50:21;10.80;;;6.93;;
62790;SDS011;48830;53.426;10.300;2022-11-23T09:52:52;13.47;;;6.63;;
62790;SDS011;48830;53.426;10.300;2022-11-23T09:55:20;12.60;;;6.80;;
62790;SDS011;48830;53.426;10.300;2022-11-23T09:58:03;10.97;;;6.50;;
62790;SDS011;48830;53.426;10.300;2022-11-23T10:00:36;16.50;;;6.10;;
62790;SDS011;48830;53.426;10.300;2022-11-23T10:03:05;10.93;;;5.73;;
62790;SDS011;48830;53.426;10.300;2022-11-23T10:05:31;11.53;;;6.20;;
62790;SDS011;48830;53.426;10.300;2022-11-23T10:11:23;11.17;;;6.10;;
62790;SDS011;48830;53.426;10.300;2022-11-23T10:16:45;11.50;;;6.23;;
62790;SDS011;48830;53.426;10.300;2022-11-23T10:22:20;14.23;;;6.47;;
62790;SDS011;48830;53.426;10.300;2022-11-23T10:24:50;11.37;;;6.70;;
62790;SDS011;48830;53.426;10.300;2022-11-23T10:27:18;13.50;;;6.60;;
62790;SDS011;48830;53.426;10.300;2022-11-23T10:29:45;13.87;;;6.17;;
62790;SDS011;48830;53.426;10.300;2022-11-23T10:37:37;8.97;;;5.50;;
62790;SDS011;48830;53.426;10.300;2022-11-23T10:40:25;10.57;;;5.73;;
62790;SDS011;48830;53.426;10.300;2022-11-23T10:42:55;14.70;;;6.13;;
62790;SDS011;48830;53.426;10.300;2022-11-23T10:45:25;11.63;;;6.20;;
62790;SDS011;48830;53.426;10.300;2022-11-23T10:47:52;9.97;;;4.97;;
62790;SDS011;48830;53.426;10.300;2022-11-23T10:53:33;10.20;;;4.60;;
62790;SDS011;48830;53.426;10.300;2022-11-23T10:55:54;11.23;;;4.70;;
62790;SDS011;48830;53.426;10.300;2022-11-23T11:01:03;9.93;;;4.70;;
62790;SDS011;48830;53.426;10.300;2022-11-23T11:03:33;7.60;;;4.73;;
62790;SDS011;48830;53.426;10.300;2022-11-23T11:05:59;7.70;;;4.43;;
62790;SDS011;48830;53.426;10.300;2022-11-23T11:08:27;9.27;;;4.47;;
62790;SDS011;48830;53.426;10.300;2022-11-23T11:13:30;11.63;;;4.80;;
62790;SDS011;48830;53.426;10.300;2022-11-23T11:18:24;11.33;;;5.37;;
62790;SDS011;48830;53.426;10.300;2022-11-23T11:20:59;8.63;;;4.90;;
62790;SDS011;48830;53.426;10.300;2022-11-23T11:23:41;11.97;;;4.47;;
62790;SDS011;48830;53.426;10.300;2022-11-23T11:26:18;9.20;;;4.80;;
62790;SDS011;48830;53.426;10.300;2022-11-23T11:28:50;10.90;;;4.87;;
62790;SDS011;48830;53.426;10.300;2022-11-23T11:34:02;8.67;;;4.33;;
62790;SDS011;48830;53.426;10.300;2022-11-23T11:39:54;8.87;;;4.80;;
62790;SDS011;48830;53.426;10.300;2022-11-23T11:43:01;9.80;;;4.67;;
62790;SDS011;48830;53.426;10.300;2022-11-23T11:45:23;8.37;;;4.73;;
62790;SDS011;48830;53.426;10.300;2022-11-23T11:47:58;8.60;;;4.57;;
62790;SDS011;48830;53.426;10.300;2022-11-23T11:50:32;8.17;;;4.50;;
62790;SDS011;48830;53.426;10.300;2022-11-23T11:53:23;10.07;;;4.97;;
62790;SDS011;48830;53.426;10.300;2022-11-23T11:55:52;13.70;;;5.27;;
62790;SDS011;48830;53.426;10.300;2022-11-23T11:58:22;10.20;;;4.70;;
62790;SDS011;48830;53.426;10.300;2022-11-23T12:00:50;11.47;;;5.07;;
62790;SDS011;48830;53.426;10.300;2022-11-23T12:03:31;8.57;;;4.60;;
62790;SDS011;48830;53.426;10.300;2022-11-23T12:06:03;8.93;;;4.72;;
62790;SDS011;48830;53.426;10.300;2022-11-23T12:08:40;9.98;;;3.90;;
62790;SDS011;48830;53.426;10.300;2022-11-23T12:11:31;8.00;;;3.75;;
62790;SDS011;48830;53.426;10.300;2022-11-23T12:14:03;6.75;;;3.50;;
62790;SDS011;48830;53.426;10.300;2022-11-23T12:16:35;7.05;;;3.60;;
62790;SDS011;48830;53.426;10.300;2022-11-23T12:32:58;7.35;;;3.35;;
62790;SDS011;48830;53.426;10.300;2022-11-23T12:38:27;8.05;;;3.30;;
62790;SDS011;48830;53.426;10.300;2022-11-23T12:54:49;6.82;;;3.22;;
62790;SDS011;48830;53.426;10.300;2022-11-23T12:57:37;8.10;;;3.20;;
62790;SDS011;48830;53.426;10.300;2022-11-23T13:11:03;6.45;;;3.05;;
62790;SDS011;48830;53.426;10.300;2022-11-23T13:21:50;7.60;;;2.90;;
62790;SDS011;48830;53.426;10.300;2022-11-23T13:24:29;9.07;;;3.03;;
62790;SDS011;48830;53.426;10.300;2022-11-23T13:40:34;6.35;;;3.00;;
62790;SDS011;48830;53.426;10.300;2022-11-23T13:45:32;6.35;;;2.97;;
62790;SDS011;48830;53.426;10.300;2022-11-23T13:50:39;8.32;;;3.20;;
62790;SDS011;48830;53.426;10.300;2022-11-23T13:54:02;7.82;;;3.20;;
62790;SDS011;48830;53.426;10.300;2022-11-23T13:58:59;7.53;;;3.53;;
62790;SDS011;48830;53.426;10.300;2022-11-23T14:04:24;6.57;;;3.40;;
62790;SDS011;48830;53.426;10.300;2022-11-23T14:07:02;8.13;;;3.65;;
62790;SDS011;48830;53.426;10.300;2022-11-23T14:12:31;7.03;;;2.80;;
62790;SDS011;48830;53.426;10.300;2022-11-23T14:15:18;7.95;;;2.97;;
62790;SDS011;48830;53.426;10.300;2022-11-23T14:18:06;7.68;;;3.42;;
62790;SDS011;48830;53.426;10.300;2022-11-23T14:36:53;10.68;;;3.95;;
62790;SDS011;48830;53.426;10.300;2022-11-23T14:41:56;8.87;;;3.80;;
62790;SDS011;48830;53.426;10.300;2022-11-23T14:44:26;7.03;;;3.87;;
62790;SDS011;48830;53.426;10.300;2022-11-23T14:49:29;10.10;;;4.57;;
62790;SDS011;48830;53.426;10.300;2022-11-23T14:51:55;9.37;;;4.23;;
62790;SDS011;48830;53.426;10.300;2022-11-23T14:54:21;6.83;;;3.80;;
62790;SDS011;48830;53.426;10.300;2022-11-23T14:56:48;8.67;;;3.90;;
62790;SDS011;48830;53.426;10.300;2022-11-23T15:01:46;8.87;;;4.20;;
62790;SDS011;48830;53.426;10.300;2022-11-23T15:04:24;7.67;;;3.97;;
62790;SDS011;48830;53.426;10.300;2022-11-23T15:07:02;8.23;;;4.30;;
62790;SDS011;48830;53.426;10.300;2022-11-23T15:12:45;10.67;;;4.67;;
62790;SDS011;48830;53.426;10.300;2022-11-23T15:15:19;7.40;;;4.77;;
62790;SDS011;48830;53.426;10.300;2022-11-23T15:17:50;12.30;;;4.67;;
62790;SDS011;48830;53.426;10.300;2022-11-23T15:20:27;7.47;;;4.07;;
62790;SDS011;48830;53.426;10.300;2022-11-23T15:22:56;10.90;;;4.67;;
62790;SDS011;48830;53.426;10.300;2022-11-23T15:25:23;10.33;;;4.10;;
62790;SDS011;48830;53.426;10.300;2022-11-23T15:27:49;11.30;;;4.67;;
62790;SDS011;48830;53.426;10.300;2022-11-23T15:30:21;8.67;;;4.33;;
62790;SDS011;48830;53.426;10.300;2022-11-23T15:33:02;12.17;;;5.60;;
62790;SDS011;48830;53.426;10.300;2022-11-23T15:35:36;7.30;;;4.00;;
62790;SDS011;48830;53.426;10.300;2022-11-23T15:38:05;11.23;;;5.10;;
62790;SDS011;48830;53.426;10.300;2022-11-23T15:40:36;12.47;;;5.80;;
62790;SDS011;48830;53.426;10.300;2022-11-23T15:43:03;12.83;;;6.57;;
62790;SDS011;48830;53.426;10.300;2022-11-23T15:48:14;9.77;;;5.27;;
62790;SDS011;48830;53.426;10.300;2022-11-23T15:53:28;11.70;;;4.83;;
62790;SDS011;48830;53.426;10.300;2022-11-23T15:56:00;9.87;;;4.67;;
62790;SDS011;48830;53.426;10.300;2022-11-23T15:58:28;9.27;;;4.83;;
62790;SDS011;48830;53.426;10.300;2022-11-23T16:00:57;16.37;;;6.97;;
62790;SDS011;48830;53.426;10.300;2022-11-23T16:03:39;17.43;;;7.63;;
62790;SDS011;48830;53.426;10.300;2022-11-23T16:08:38;10.80;;;5.03;;
62790;SDS011;48830;53.426;10.300;2022-11-23T16:11:50;7.80;;;4.83;;
62790;SDS011;48830;53.426;10.300;2022-11-23T16:13:50;10.07;;;5.07;;
62790;SDS011;48830;53.426;10.300;2022-11-23T16:16:19;10.83;;;6.17;;
62790;SDS011;48830;53.426;10.300;2022-11-23T16:18:47;11.67;;;5.80;;
62790;SDS011;48830;53.426;10.300;2022-11-23T16:21:20;16.87;;;9.97;;
62790;SDS011;48830;53.426;10.300;2022-11-23T16:24:05;12.23;;;6.07;;
62790;SDS011;48830;53.426;10.300;2022-11-23T16:26:42;8.83;;;5.63;;
62790;SDS011;48830;53.426;10.300;2022-11-23T16:29:15;10.37;;;5.10;;
62790;SDS011;48830;53.426;10.300;2022-11-23T16:31:57;15.00;;;6.77;;
62790;SDS011;48830;53.426;10.300;2022-11-23T16:34:24;12.20;;;5.63;;
62790;SDS011;48830;53.426;10.300;2022-11-23T16:36:52;8.73;;;5.07;;
62790;SDS011;48830;53.426;10.300;2022-11-23T16:39:20;11.50;;;5.37;;
62790;SDS011;48830;53.426;10.300;2022-11-23T16:41:47;11.80;;;5.20;;
62790;SDS011;48830;53.426;10.300;2022-11-23T16:44:12;11.50;;;5.17;;
62790;SDS011;48830;53.426;10.300;2022-11-23T16:46:38;10.20;;;4.97;;
62790;SDS011;48830;53.426;10.300;2022-11-23T16:49:04;11.13;;;5.50;;
62790;SDS011;48830;53.426;10.300;2022-11-23T16:51:30;12.23;;;5.37;;
62790;SDS011;48830;53.426;10.300;2022-11-23T16:53:55;12.30;;;5.30;;
62790;SDS011;48830;53.426;10.300;2022-11-23T16:56:21;12.37;;;5.90;;
62790;SDS011;48830;53.426;10.300;2022-11-23T16:58:49;11.60;;;5.87;;
62790;SDS011;48830;53.426;10.300;2022-11-23T17:01:19;11.50;;;6.07;;
62790;SDS011;48830;53.426;10.300;2022-11-23T17:03:48;14.67;;;6.03;;
62790;SDS011;48830;53.426;10.300;2022-11-23T17:06:14;12.13;;;6.80;;